sensor_id;sensor_type;location;lat;lon;timestamp;P1;durP1;ratioP1;P2;durP2;ratioP2
65543;SDS011;52173;45.204;39.240;2022-07-06T00:00:07;14.10;;;6.10;;
65543;SDS011;52173;45.204;39.240;2022-07-06T00:02:33;13.27;;;6.07;;
65543;SDS011;52173;45.204;39.240;2022-07-06T00:04:59;12.80;;;6.10;;
65543;SDS011;52173;45.204;39.240;2022-07-06T00:07:24;15.85;;;6.13;;
65543;SDS011;52173;45.204;39.240;2022-07-06T00:09:50;12.68;;;5.88;;
65543;SDS011;52173;45.204;39.240;2022-07-06T00:12:16;16.77;;;6.03;;
65543;SDS011;52173;45.204;39.240;2022-07-06T00:14:42;12.07;;;5.38;;
65543;SDS011;52173;45.204;39.240;2022-07-06T00:17:08;9.38;;;5.85;;
65543;SDS011;52173;45.204;39.240;2022-07-06T00:19:34;11.65;;;5.75;;
65543;SDS011;52173;45.204;39.240;2022-07-06T00:22:00;9.15;;;5.72;;
65543;SDS011;52173;45.204;39.240;2022-07-06T00:24:26;16.33;;;5.78;;
65543;SDS011;52173;45.204;39.240;2022-07-06T00:26:52;10.77;;;5.90;;
65543;SDS011;52173;45.204;39.240;2022-07-06T00:29:18;10.65;;;5.80;;
65543;SDS011;52173;45.204;39.240;2022-07-06T00:31:43;12.20;;;5.32;;
65543;SDS011;52173;45.204;39.240;2022-07-06T00:34:09;12.93;;;5.85;;
65543;SDS011;52173;45.204;39.240;2022-07-06T00:36:35;7.93;;;5.85;;
65543;SDS011;52173;45.204;39.240;2022-07-06T00:39:02;16.00;;;7.07;;
65543;SDS011;52173;45.204;39.240;2022-07-06T00:41:28;16.92;;;5.90;;
65543;SDS011;52173;45.204;39.240;2022-07-06T00:43:55;13.95;;;6.00;;
65543;SDS011;52173;45.204;39.240;2022-07-06T00:46:22;9.27;;;5.95;;
65543;SDS011;52173;45.204;39.240;2022-07-06T00:48:48;9.75;;;5.90;;
65543;SDS011;52173;45.204;39.240;2022-07-06T00:51:14;11.63;;;6.55;;
65543;SDS011;52173;45.204;39.240;2022-07-06T00:53:40;12.75;;;6.57;;
65543;SDS011;52173;45.204;39.240;2022-07-06T00:56:06;13.00;;;6.00;;
65543;SDS011;52173;45.204;39.240;2022-07-06T00:58:32;12.32;;;6.40;;
65543;SDS011;52173;45.204;39.240;2022-07-06T01:00:58;14.80;;;6.40;;
65543;SDS011;52173;45.204;39.240;2022-07-06T01:03:24;8.02;;;5.75;;
65543;SDS011;52173;45.204;39.240;2022-07-06T01:05:50;14.45;;;6.15;;
65543;SDS011;52173;45.204;39.240;2022-07-06T01:08:16;13.02;;;5.93;;
65543;SDS011;52173;45.204;39.240;2022-07-06T01:10:42;11.13;;;6.55;;
65543;SDS011;52173;45.204;39.240;2022-07-06T01:13:08;17.60;;;5.80;;
65543;SDS011;52173;45.204;39.240;2022-07-06T01:15:35;14.48;;;5.63;;
65543;SDS011;52173;45.204;39.240;2022-07-06T01:18:01;7.30;;;5.35;;
65543;SDS011;52173;45.204;39.240;2022-07-06T01:20:30;11.43;;;5.07;;
65543;SDS011;52173;45.204;39.240;2022-07-06T01:22:58;11.35;;;5.50;;
65543;SDS011;52173;45.204;39.240;2022-07-06T01:25:24;12.23;;;5.00;;
65543;SDS011;52173;45.204;39.240;2022-07-06T01:27:50;7.30;;;5.50;;
65543;SDS011;52173;45.204;39.240;2022-07-06T01:30:17;10.05;;;5.00;;
65543;SDS011;52173;45.204;39.240;2022-07-06T01:32:43;10.98;;;5.30;;
65543;SDS011;52173;45.204;39.240;2022-07-06T01:35:11;10.00;;;4.90;;
65543;SDS011;52173;45.204;39.240;2022-07-06T01:37:37;10.68;;;4.93;;
65543;SDS011;52173;45.204;39.240;2022-07-06T01:40:04;11.05;;;4.80;;
65543;SDS011;52173;45.204;39.240;2022-07-06T01:42:30;13.50;;;5.00;;
65543;SDS011;52173;45.204;39.240;2022-07-06T01:44:56;10.30;;;4.95;;
65543;SDS011;52173;45.204;39.240;2022-07-06T01:47:22;11.88;;;5.10;;
65543;SDS011;52173;45.204;39.240;2022-07-06T01:49:50;9.93;;;4.65;;
65543;SDS011;52173;45.204;39.240;2022-07-06T01:52:16;21.95;;;6.53;;
65543;SDS011;52173;45.204;39.240;2022-07-06T01:54:42;21.25;;;5.53;;
65543;SDS011;52173;45.204;39.240;2022-07-06T01:57:08;12.63;;;4.78;;
65543;SDS011;52173;45.204;39.240;2022-07-06T01:59:34;8.55;;;4.97;;
65543;SDS011;52173;45.204;39.240;2022-07-06T02:02:00;14.07;;;4.53;;
65543;SDS011;52173;45.204;39.240;2022-07-06T02:04:26;11.65;;;4.70;;
65543;SDS011;52173;45.204;39.240;2022-07-06T02:06:52;14.77;;;5.72;;
65543;SDS011;52173;45.204;39.240;2022-07-06T02:09:19;7.53;;;4.35;;
65543;SDS011;52173;45.204;39.240;2022-07-06T02:11:45;10.55;;;4.75;;
65543;SDS011;52173;45.204;39.240;2022-07-06T02:14:13;12.77;;;4.70;;
65543;SDS011;52173;45.204;39.240;2022-07-06T02:16:40;15.98;;;5.53;;
65543;SDS011;52173;45.204;39.240;2022-07-06T02:19:06;9.25;;;4.47;;
65543;SDS011;52173;45.204;39.240;2022-07-06T02:21:33;7.05;;;3.95;;
65543;SDS011;52173;45.204;39.240;2022-07-06T02:23:59;13.68;;;4.63;;
65543;SDS011;52173;45.204;39.240;2022-07-06T02:26:28;8.75;;;4.63;;
65543;SDS011;52173;45.204;39.240;2022-07-06T02:28:54;9.38;;;4.18;;
65543;SDS011;52173;45.204;39.240;2022-07-06T02:31:20;7.53;;;4.28;;
65543;SDS011;52173;45.204;39.240;2022-07-06T02:33:48;12.80;;;4.65;;
65543;SDS011;52173;45.204;39.240;2022-07-06T02:36:14;7.43;;;4.40;;
65543;SDS011;52173;45.204;39.240;2022-07-06T02:38:41;9.77;;;4.40;;
65543;SDS011;52173;45.204;39.240;2022-07-06T02:41:07;10.13;;;4.28;;
65543;SDS011;52173;45.204;39.240;2022-07-06T02:43:34;10.07;;;4.75;;
65543;SDS011;52173;45.204;39.240;2022-07-06T02:45:59;11.98;;;4.57;;
65543;SDS011;52173;45.204;39.240;2022-07-06T02:48:27;7.78;;;4.30;;
65543;SDS011;52173;45.204;39.240;2022-07-06T02:50:53;8.35;;;4.22;;
65543;SDS011;52173;45.204;39.240;2022-07-06T02:53:20;10.95;;;4.35;;
65543;SDS011;52173;45.204;39.240;2022-07-06T02:55:51;21.15;;;5.55;;
65543;SDS011;52173;45.204;39.240;2022-07-06T02:58:17;10.95;;;4.38;;
65543;SDS011;52173;45.204;39.240;2022-07-06T03:00:42;14.73;;;4.10;;
65543;SDS011;52173;45.204;39.240;2022-07-06T03:03:09;10.05;;;3.90;;
65543;SDS011;52173;45.204;39.240;2022-07-06T03:05:36;11.70;;;4.47;;
65543;SDS011;52173;45.204;39.240;2022-07-06T03:08:01;10.25;;;3.95;;
65543;SDS011;52173;45.204;39.240;2022-07-06T03:10:29;6.47;;;4.18;;
65543;SDS011;52173;45.204;39.240;2022-07-06T03:12:55;10.85;;;3.80;;
65543;SDS011;52173;45.204;39.240;2022-07-06T03:15:21;7.95;;;3.60;;
65543;SDS011;52173;45.204;39.240;2022-07-06T03:17:47;10.40;;;3.53;;
65543;SDS011;52173;45.204;39.240;2022-07-06T03:20:14;9.73;;;3.70;;
65543;SDS011;52173;45.204;39.240;2022-07-06T03:22:40;9.02;;;4.00;;
65543;SDS011;52173;45.204;39.240;2022-07-06T03:25:07;9.13;;;3.17;;
65543;SDS011;52173;45.204;39.240;2022-07-06T03:27:35;11.57;;;4.10;;
65543;SDS011;52173;45.204;39.240;2022-07-06T03:30:02;10.77;;;3.70;;
65543;SDS011;52173;45.204;39.240;2022-07-06T03:32:29;9.75;;;3.70;;
65543;SDS011;52173;45.204;39.240;2022-07-06T03:34:59;7.93;;;3.80;;
65543;SDS011;52173;45.204;39.240;2022-07-06T03:37:25;8.70;;;3.40;;
65543;SDS011;52173;45.204;39.240;2022-07-06T03:39:51;13.05;;;3.75;;
65543;SDS011;52173;45.204;39.240;2022-07-06T03:42:17;12.18;;;3.67;;
65543;SDS011;52173;45.204;39.240;2022-07-06T03:44:44;55.33;;;6.53;;
65543;SDS011;52173;45.204;39.240;2022-07-06T03:47:11;17.27;;;3.78;;
65543;SDS011;52173;45.204;39.240;2022-07-06T03:49:38;15.40;;;3.42;;
65543;SDS011;52173;45.204;39.240;2022-07-06T03:52:05;27.33;;;4.13;;
65543;SDS011;52173;45.204;39.240;2022-07-06T03:54:40;19.13;;;4.10;;
65543;SDS011;52173;45.204;39.240;2022-07-06T03:57:07;14.05;;;4.03;;
65543;SDS011;52173;45.204;39.240;2022-07-06T03:59:33;12.18;;;3.70;;
65543;SDS011;52173;45.204;39.240;2022-07-06T04:01:59;14.15;;;3.80;;
65543;SDS011;52173;45.204;39.240;2022-07-06T04:04:25;9.05;;;3.47;;
65543;SDS011;52173;45.204;39.240;2022-07-06T04:06:52;6.97;;;3.30;;
65543;SDS011;52173;45.204;39.240;2022-07-06T04:09:19;12.50;;;3.50;;
65543;SDS011;52173;45.204;39.240;2022-07-06T04:11:46;11.05;;;3.58;;
65543;SDS011;52173;45.204;39.240;2022-07-06T04:14:12;7.90;;;3.38;;
65543;SDS011;52173;45.204;39.240;2022-07-06T04:16:39;8.10;;;3.35;;
65543;SDS011;52173;45.204;39.240;2022-07-06T04:19:06;8.35;;;3.00;;
65543;SDS011;52173;45.204;39.240;2022-07-06T04:21:32;7.68;;;3.40;;
65543;SDS011;52173;45.204;39.240;2022-07-06T04:23:58;7.60;;;3.22;;
65543;SDS011;52173;45.204;39.240;2022-07-06T04:26:26;26.52;;;4.35;;
65543;SDS011;52173;45.204;39.240;2022-07-06T04:28:52;8.70;;;3.13;;
65543;SDS011;52173;45.204;39.240;2022-07-06T04:31:19;8.27;;;3.20;;
65543;SDS011;52173;45.204;39.240;2022-07-06T04:33:48;8.52;;;3.03;;
65543;SDS011;52173;45.204;39.240;2022-07-06T04:36:15;11.30;;;3.22;;
65543;SDS011;52173;45.204;39.240;2022-07-06T04:38:43;12.57;;;3.00;;
65543;SDS011;52173;45.204;39.240;2022-07-06T04:41:10;13.82;;;3.88;;
65543;SDS011;52173;45.204;39.240;2022-07-06T04:43:37;30.73;;;3.75;;
65543;SDS011;52173;45.204;39.240;2022-07-06T04:46:03;10.88;;;3.17;;
65543;SDS011;52173;45.204;39.240;2022-07-06T04:48:34;24.85;;;3.50;;
65543;SDS011;52173;45.204;39.240;2022-07-06T04:51:06;8.40;;;3.10;;
65543;SDS011;52173;45.204;39.240;2022-07-06T04:53:32;12.25;;;2.90;;
65543;SDS011;52173;45.204;39.240;2022-07-06T04:55:58;12.57;;;3.55;;
65543;SDS011;52173;45.204;39.240;2022-07-06T04:58:26;15.18;;;3.05;;
65543;SDS011;52173;45.204;39.240;2022-07-06T05:00:52;23.92;;;3.40;;
65543;SDS011;52173;45.204;39.240;2022-07-06T05:03:20;11.57;;;3.40;;
65543;SDS011;52173;45.204;39.240;2022-07-06T05:05:46;12.77;;;3.33;;
65543;SDS011;52173;45.204;39.240;2022-07-06T05:08:12;8.43;;;3.33;;
65543;SDS011;52173;45.204;39.240;2022-07-06T05:10:39;28.63;;;4.05;;
65543;SDS011;52173;45.204;39.240;2022-07-06T05:13:05;21.25;;;3.63;;
65543;SDS011;52173;45.204;39.240;2022-07-06T05:15:32;10.48;;;3.05;;
65543;SDS011;52173;45.204;39.240;2022-07-06T05:17:58;16.92;;;3.47;;
65543;SDS011;52173;45.204;39.240;2022-07-06T05:20:24;9.52;;;3.05;;
65543;SDS011;52173;45.204;39.240;2022-07-06T05:22:50;11.70;;;2.90;;
65543;SDS011;52173;45.204;39.240;2022-07-06T05:25:21;9.40;;;2.65;;
65543;SDS011;52173;45.204;39.240;2022-07-06T05:27:47;16.50;;;3.03;;
65543;SDS011;52173;45.204;39.240;2022-07-06T05:30:13;12.88;;;3.00;;
65543;SDS011;52173;45.204;39.240;2022-07-06T05:32:42;13.70;;;3.00;;
65543;SDS011;52173;45.204;39.240;2022-07-06T05:35:08;10.65;;;2.88;;
65543;SDS011;52173;45.204;39.240;2022-07-06T05:37:35;9.48;;;3.05;;
65543;SDS011;52173;45.204;39.240;2022-07-06T05:40:01;14.35;;;3.00;;
65543;SDS011;52173;45.204;39.240;2022-07-06T05:42:27;10.43;;;2.70;;
65543;SDS011;52173;45.204;39.240;2022-07-06T05:44:56;15.82;;;2.83;;
65543;SDS011;52173;45.204;39.240;2022-07-06T05:47:24;5.80;;;2.50;;
65543;SDS011;52173;45.204;39.240;2022-07-06T05:50:08;8.85;;;2.55;;
65543;SDS011;52173;45.204;39.240;2022-07-06T05:53:00;13.23;;;2.67;;
65543;SDS011;52173;45.204;39.240;2022-07-06T05:55:28;5.30;;;2.20;;
65543;SDS011;52173;45.204;39.240;2022-07-06T05:57:55;15.30;;;2.92;;
65543;SDS011;52173;45.204;39.240;2022-07-06T06:00:23;19.63;;;3.03;;
65543;SDS011;52173;45.204;39.240;2022-07-06T06:02:52;53.35;;;5.13;;
65543;SDS011;52173;45.204;39.240;2022-07-06T06:05:19;14.65;;;2.63;;
65543;SDS011;52173;45.204;39.240;2022-07-06T06:07:47;41.78;;;3.63;;
65543;SDS011;52173;45.204;39.240;2022-07-06T06:10:14;9.50;;;2.35;;
65543;SDS011;52173;45.204;39.240;2022-07-06T06:12:41;14.40;;;2.55;;
65543;SDS011;52173;45.204;39.240;2022-07-06T06:15:08;9.57;;;2.33;;
65543;SDS011;52173;45.204;39.240;2022-07-06T06:17:35;14.10;;;2.10;;
65543;SDS011;52173;45.204;39.240;2022-07-06T06:20:01;6.75;;;2.10;;
65543;SDS011;52173;45.204;39.240;2022-07-06T06:22:27;10.15;;;2.03;;
65543;SDS011;52173;45.204;39.240;2022-07-06T06:24:53;8.02;;;2.00;;
65543;SDS011;52173;45.204;39.240;2022-07-06T06:27:18;15.05;;;2.08;;
65543;SDS011;52173;45.204;39.240;2022-07-06T06:29:44;11.00;;;2.08;;
65543;SDS011;52173;45.204;39.240;2022-07-06T06:32:11;11.32;;;2.17;;
65543;SDS011;52173;45.204;39.240;2022-07-06T06:34:37;8.07;;;2.10;;
65543;SDS011;52173;45.204;39.240;2022-07-06T06:37:03;7.45;;;2.00;;
65543;SDS011;52173;45.204;39.240;2022-07-06T06:39:29;13.38;;;2.33;;
65543;SDS011;52173;45.204;39.240;2022-07-06T06:41:55;17.77;;;2.40;;
65543;SDS011;52173;45.204;39.240;2022-07-06T06:44:21;28.70;;;2.88;;
65543;SDS011;52173;45.204;39.240;2022-07-06T06:46:50;8.70;;;2.40;;
65543;SDS011;52173;45.204;39.240;2022-07-06T06:49:16;6.57;;;1.65;;
65543;SDS011;52173;45.204;39.240;2022-07-06T06:51:42;9.18;;;1.83;;
65543;SDS011;52173;45.204;39.240;2022-07-06T06:54:08;10.23;;;2.03;;
65543;SDS011;52173;45.204;39.240;2022-07-06T06:56:34;7.22;;;1.80;;
65543;SDS011;52173;45.204;39.240;2022-07-06T06:58:59;8.75;;;1.83;;
65543;SDS011;52173;45.204;39.240;2022-07-06T07:01:27;7.97;;;2.08;;
65543;SDS011;52173;45.204;39.240;2022-07-06T07:03:53;6.40;;;2.00;;
65543;SDS011;52173;45.204;39.240;2022-07-06T07:06:20;16.23;;;1.90;;
65543;SDS011;52173;45.204;39.240;2022-07-06T07:08:46;10.32;;;2.13;;
65543;SDS011;52173;45.204;39.240;2022-07-06T07:11:12;7.78;;;1.60;;
65543;SDS011;52173;45.204;39.240;2022-07-06T07:13:38;5.03;;;1.70;;
65543;SDS011;52173;45.204;39.240;2022-07-06T07:16:04;5.47;;;1.50;;
65543;SDS011;52173;45.204;39.240;2022-07-06T07:18:30;8.10;;;1.92;;
65543;SDS011;52173;45.204;39.240;2022-07-06T07:20:56;8.88;;;1.65;;
65543;SDS011;52173;45.204;39.240;2022-07-06T07:23:22;9.38;;;1.60;;
65543;SDS011;52173;45.204;39.240;2022-07-06T07:25:48;5.68;;;1.73;;
65543;SDS011;52173;45.204;39.240;2022-07-06T07:28:14;13.18;;;2.08;;
65543;SDS011;52173;45.204;39.240;2022-07-06T07:30:39;17.13;;;2.58;;
65543;SDS011;52173;45.204;39.240;2022-07-06T07:33:05;8.48;;;1.83;;
65543;SDS011;52173;45.204;39.240;2022-07-06T07:35:31;7.57;;;1.80;;
65543;SDS011;52173;45.204;39.240;2022-07-06T07:37:57;6.30;;;1.83;;
65543;SDS011;52173;45.204;39.240;2022-07-06T07:40:23;8.73;;;1.90;;
65543;SDS011;52173;45.204;39.240;2022-07-06T07:42:49;8.50;;;1.90;;
65543;SDS011;52173;45.204;39.240;2022-07-06T07:45:15;4.40;;;1.50;;
65543;SDS011;52173;45.204;39.240;2022-07-06T07:47:41;5.22;;;1.88;;
65543;SDS011;52173;45.204;39.240;2022-07-06T07:50:07;4.15;;;1.67;;
65543;SDS011;52173;45.204;39.240;2022-07-06T07:52:33;5.40;;;1.60;;
65543;SDS011;52173;45.204;39.240;2022-07-06T07:54:58;6.95;;;1.70;;
65543;SDS011;52173;45.204;39.240;2022-07-06T07:57:24;2.88;;;1.50;;
65543;SDS011;52173;45.204;39.240;2022-07-06T07:59:50;10.55;;;1.88;;
65543;SDS011;52173;45.204;39.240;2022-07-06T08:02:16;3.42;;;1.50;;
65543;SDS011;52173;45.204;39.240;2022-07-06T08:04:42;7.20;;;1.50;;
65543;SDS011;52173;45.204;39.240;2022-07-06T08:07:08;3.58;;;1.70;;
65543;SDS011;52173;45.204;39.240;2022-07-06T08:09:34;9.63;;;1.80;;
65543;SDS011;52173;45.204;39.240;2022-07-06T08:12:00;6.78;;;1.65;;
65543;SDS011;52173;45.204;39.240;2022-07-06T08:14:26;4.65;;;1.70;;
65543;SDS011;52173;45.204;39.240;2022-07-06T08:16:52;49.97;;;3.60;;
65543;SDS011;52173;45.204;39.240;2022-07-06T08:19:17;9.95;;;1.67;;
65543;SDS011;52173;45.204;39.240;2022-07-06T08:21:43;2.85;;;1.42;;
65543;SDS011;52173;45.204;39.240;2022-07-06T08:24:09;6.50;;;1.83;;
65543;SDS011;52173;45.204;39.240;2022-07-06T08:26:36;7.28;;;1.60;;
65543;SDS011;52173;45.204;39.240;2022-07-06T08:29:02;2.78;;;1.30;;
65543;SDS011;52173;45.204;39.240;2022-07-06T08:31:27;6.13;;;1.35;;
65543;SDS011;52173;45.204;39.240;2022-07-06T08:33:53;7.90;;;2.00;;
65543;SDS011;52173;45.204;39.240;2022-07-06T08:36:20;4.78;;;1.60;;
65543;SDS011;52173;45.204;39.240;2022-07-06T08:38:46;14.55;;;2.13;;
65543;SDS011;52173;45.204;39.240;2022-07-06T08:41:13;15.25;;;2.05;;
65543;SDS011;52173;45.204;39.240;2022-07-06T08:43:39;5.70;;;1.70;;
65543;SDS011;52173;45.204;39.240;2022-07-06T08:46:05;53.65;;;4.20;;
65543;SDS011;52173;45.204;39.240;2022-07-06T08:48:34;7.47;;;1.52;;
65543;SDS011;52173;45.204;39.240;2022-07-06T08:51:01;5.25;;;1.50;;
65543;SDS011;52173;45.204;39.240;2022-07-06T08:53:27;7.80;;;1.80;;
65543;SDS011;52173;45.204;39.240;2022-07-06T08:55:53;7.20;;;1.50;;
65543;SDS011;52173;45.204;39.240;2022-07-06T08:58:20;5.22;;;1.70;;
65543;SDS011;52173;45.204;39.240;2022-07-06T09:00:46;6.85;;;1.73;;
65543;SDS011;52173;45.204;39.240;2022-07-06T09:03:12;6.30;;;1.75;;
65543;SDS011;52173;45.204;39.240;2022-07-06T09:05:39;11.77;;;2.08;;
65543;SDS011;52173;45.204;39.240;2022-07-06T09:08:05;4.43;;;1.50;;
65543;SDS011;52173;45.204;39.240;2022-07-06T09:10:30;4.20;;;1.70;;
65543;SDS011;52173;45.204;39.240;2022-07-06T09:13:06;3.85;;;1.50;;
65543;SDS011;52173;45.204;39.240;2022-07-06T09:15:32;4.85;;;1.60;;
65543;SDS011;52173;45.204;39.240;2022-07-06T09:17:58;6.93;;;1.77;;
65543;SDS011;52173;45.204;39.240;2022-07-06T09:20:24;7.82;;;1.48;;
65543;SDS011;52173;45.204;39.240;2022-07-06T09:22:50;4.97;;;1.60;;
65543;SDS011;52173;45.204;39.240;2022-07-06T09:25:16;6.50;;;1.60;;
65543;SDS011;52173;45.204;39.240;2022-07-06T09:27:43;7.68;;;1.40;;
65543;SDS011;52173;45.204;39.240;2022-07-06T09:30:11;7.60;;;1.30;;
65543;SDS011;52173;45.204;39.240;2022-07-06T09:32:44;3.90;;;1.20;;
65543;SDS011;52173;45.204;39.240;2022-07-06T09:35:19;12.75;;;1.67;;
65543;SDS011;52173;45.204;39.240;2022-07-06T09:37:45;7.70;;;1.40;;
65543;SDS011;52173;45.204;39.240;2022-07-06T09:40:19;19.58;;;2.58;;
65543;SDS011;52173;45.204;39.240;2022-07-06T09:42:45;7.03;;;1.38;;
65543;SDS011;52173;45.204;39.240;2022-07-06T09:45:11;6.22;;;1.50;;
65543;SDS011;52173;45.204;39.240;2022-07-06T09:47:37;5.38;;;1.48;;
65543;SDS011;52173;45.204;39.240;2022-07-06T09:50:06;8.05;;;1.67;;
65543;SDS011;52173;45.204;39.240;2022-07-06T09:52:35;4.05;;;1.60;;
65543;SDS011;52173;45.204;39.240;2022-07-06T09:55:05;4.65;;;1.98;;
65543;SDS011;52173;45.204;39.240;2022-07-06T09:57:31;6.15;;;2.92;;
65543;SDS011;52173;45.204;39.240;2022-07-06T09:59:56;5.97;;;3.47;;
65543;SDS011;52173;45.204;39.240;2022-07-06T10:02:23;16.80;;;7.18;;
65543;SDS011;52173;45.204;39.240;2022-07-06T10:04:52;7.57;;;2.40;;
65543;SDS011;52173;45.204;39.240;2022-07-06T10:07:21;6.30;;;1.40;;
65543;SDS011;52173;45.204;39.240;2022-07-06T10:09:48;5.63;;;1.30;;
65543;SDS011;52173;45.204;39.240;2022-07-06T10:12:14;6.20;;;1.40;;
65543;SDS011;52173;45.204;39.240;2022-07-06T10:14:40;9.38;;;2.17;;
65543;SDS011;52173;45.204;39.240;2022-07-06T10:17:07;13.60;;;7.20;;
65543;SDS011;52173;45.204;39.240;2022-07-06T10:19:33;7.05;;;1.92;;
65543;SDS011;52173;45.204;39.240;2022-07-06T10:22:00;5.63;;;1.10;;
65543;SDS011;52173;45.204;39.240;2022-07-06T10:24:27;3.60;;;1.10;;
65543;SDS011;52173;45.204;39.240;2022-07-06T10:26:53;4.65;;;1.20;;
65543;SDS011;52173;45.204;39.240;2022-07-06T10:29:20;4.32;;;1.10;;
65543;SDS011;52173;45.204;39.240;2022-07-06T10:31:47;6.65;;;2.10;;
65543;SDS011;52173;45.204;39.240;2022-07-06T10:34:14;4.10;;;1.52;;
65543;SDS011;52173;45.204;39.240;2022-07-06T10:36:41;4.40;;;1.73;;
65543;SDS011;52173;45.204;39.240;2022-07-06T10:39:07;6.55;;;1.95;;
65543;SDS011;52173;45.204;39.240;2022-07-06T10:41:51;9.32;;;2.22;;
65543;SDS011;52173;45.204;39.240;2022-07-06T10:44:17;11.38;;;1.80;;
65543;SDS011;52173;45.204;39.240;2022-07-06T10:46:56;3.75;;;1.77;;
65543;SDS011;52173;45.204;39.240;2022-07-06T10:49:23;3.45;;;1.90;;
65543;SDS011;52173;45.204;39.240;2022-07-06T10:51:49;9.20;;;2.13;;
65543;SDS011;52173;45.204;39.240;2022-07-06T10:54:15;10.73;;;1.85;;
65543;SDS011;52173;45.204;39.240;2022-07-06T10:56:46;6.93;;;1.45;;
65543;SDS011;52173;45.204;39.240;2022-07-06T10:59:12;7.40;;;1.30;;
65543;SDS011;52173;45.204;39.240;2022-07-06T11:01:39;6.93;;;1.20;;
65543;SDS011;52173;45.204;39.240;2022-07-06T11:04:06;30.20;;;2.25;;
65543;SDS011;52173;45.204;39.240;2022-07-06T11:06:33;4.60;;;1.30;;
65543;SDS011;52173;45.204;39.240;2022-07-06T11:09:09;44.28;;;3.30;;
65543;SDS011;52173;45.204;39.240;2022-07-06T11:14:03;3.85;;;1.20;;
65543;SDS011;52173;45.204;39.240;2022-07-06T11:16:33;16.27;;;1.70;;
65543;SDS011;52173;45.204;39.240;2022-07-06T11:19:04;3.83;;;1.35;;
65543;SDS011;52173;45.204;39.240;2022-07-06T11:21:39;6.00;;;1.40;;
65543;SDS011;52173;45.204;39.240;2022-07-06T11:24:07;8.63;;;1.30;;
65543;SDS011;52173;45.204;39.240;2022-07-06T11:26:34;8.55;;;1.60;;
65543;SDS011;52173;45.204;39.240;2022-07-06T11:29:04;4.88;;;1.20;;
65543;SDS011;52173;45.204;39.240;2022-07-06T11:31:34;4.07;;;1.23;;
65543;SDS011;52173;45.204;39.240;2022-07-06T11:34:02;5.18;;;1.40;;
65543;SDS011;52173;45.204;39.240;2022-07-06T11:36:28;4.72;;;1.50;;
65543;SDS011;52173;45.204;39.240;2022-07-06T11:38:54;17.00;;;2.22;;
65543;SDS011;52173;45.204;39.240;2022-07-06T11:41:20;5.88;;;1.25;;
65543;SDS011;52173;45.204;39.240;2022-07-06T11:43:46;8.07;;;1.38;;
65543;SDS011;52173;45.204;39.240;2022-07-06T11:46:32;3.42;;;1.30;;
65543;SDS011;52173;45.204;39.240;2022-07-06T11:49:00;7.95;;;1.60;;
65543;SDS011;52173;45.204;39.240;2022-07-06T11:51:27;14.82;;;2.10;;
65543;SDS011;52173;45.204;39.240;2022-07-06T11:53:54;6.88;;;1.67;;
65543;SDS011;52173;45.204;39.240;2022-07-06T11:56:21;5.55;;;1.25;;
65543;SDS011;52173;45.204;39.240;2022-07-06T11:58:51;5.13;;;1.70;;
65543;SDS011;52173;45.204;39.240;2022-07-06T12:01:17;6.82;;;1.77;;
65543;SDS011;52173;45.204;39.240;2022-07-06T12:03:43;3.97;;;1.40;;
65543;SDS011;52173;45.204;39.240;2022-07-06T12:06:14;4.15;;;1.33;;
65543;SDS011;52173;45.204;39.240;2022-07-06T12:08:47;6.72;;;1.48;;
65543;SDS011;52173;45.204;39.240;2022-07-06T12:11:18;2.45;;;1.30;;
65543;SDS011;52173;45.204;39.240;2022-07-06T12:13:45;8.85;;;1.27;;
65543;SDS011;52173;45.204;39.240;2022-07-06T12:16:11;7.00;;;1.80;;
65543;SDS011;52173;45.204;39.240;2022-07-06T12:18:38;9.98;;;1.42;;
65543;SDS011;52173;45.204;39.240;2022-07-06T12:21:07;9.57;;;1.98;;
65543;SDS011;52173;45.204;39.240;2022-07-06T12:23:41;8.07;;;1.52;;
65543;SDS011;52173;45.204;39.240;2022-07-06T12:26:08;10.95;;;1.58;;
65543;SDS011;52173;45.204;39.240;2022-07-06T12:28:34;8.93;;;1.65;;
65543;SDS011;52173;45.204;39.240;2022-07-06T12:31:00;4.20;;;1.70;;
65543;SDS011;52173;45.204;39.240;2022-07-06T12:33:26;9.40;;;1.50;;
65543;SDS011;52173;45.204;39.240;2022-07-06T12:35:53;15.20;;;1.83;;
65543;SDS011;52173;45.204;39.240;2022-07-06T12:38:23;11.35;;;1.88;;
65543;SDS011;52173;45.204;39.240;2022-07-06T12:40:49;8.65;;;1.90;;
65543;SDS011;52173;45.204;39.240;2022-07-06T12:43:34;16.52;;;2.15;;
65543;SDS011;52173;45.204;39.240;2022-07-06T12:46:22;6.80;;;1.60;;
65543;SDS011;52173;45.204;39.240;2022-07-06T12:48:55;2.50;;;1.40;;
65543;SDS011;52173;45.204;39.240;2022-07-06T12:51:21;5.75;;;1.50;;
65543;SDS011;52173;45.204;39.240;2022-07-06T12:53:47;8.95;;;1.60;;
65543;SDS011;52173;45.204;39.240;2022-07-06T12:56:14;10.73;;;2.00;;
65543;SDS011;52173;45.204;39.240;2022-07-06T12:58:53;4.15;;;1.55;;
65543;SDS011;52173;45.204;39.240;2022-07-06T13:01:19;6.07;;;1.77;;
65543;SDS011;52173;45.204;39.240;2022-07-06T13:03:45;7.05;;;1.50;;
65543;SDS011;52173;45.204;39.240;2022-07-06T13:06:11;21.98;;;2.70;;
65543;SDS011;52173;45.204;39.240;2022-07-06T13:08:37;7.38;;;1.80;;
65543;SDS011;52173;45.204;39.240;2022-07-06T13:11:03;5.47;;;1.77;;
65543;SDS011;52173;45.204;39.240;2022-07-06T13:13:29;4.05;;;1.83;;
65543;SDS011;52173;45.204;39.240;2022-07-06T13:15:55;6.20;;;1.70;;
65543;SDS011;52173;45.204;39.240;2022-07-06T13:18:21;9.65;;;1.75;;
65543;SDS011;52173;45.204;39.240;2022-07-06T13:20:47;5.38;;;1.90;;
65543;SDS011;52173;45.204;39.240;2022-07-06T13:23:13;3.08;;;1.48;;
65543;SDS011;52173;45.204;39.240;2022-07-06T13:25:39;5.93;;;1.60;;
65543;SDS011;52173;45.204;39.240;2022-07-06T13:28:05;5.40;;;1.40;;
65543;SDS011;52173;45.204;39.240;2022-07-06T13:30:31;13.40;;;1.88;;
65543;SDS011;52173;45.204;39.240;2022-07-06T13:32:57;26.10;;;3.00;;
65543;SDS011;52173;45.204;39.240;2022-07-06T13:35:23;8.85;;;1.60;;
65543;SDS011;52173;45.204;39.240;2022-07-06T13:37:48;7.57;;;1.70;;
65543;SDS011;52173;45.204;39.240;2022-07-06T13:40:16;10.95;;;2.30;;
65543;SDS011;52173;45.204;39.240;2022-07-06T13:42:42;6.68;;;2.20;;
65543;SDS011;52173;45.204;39.240;2022-07-06T13:45:08;5.85;;;2.08;;
65543;SDS011;52173;45.204;39.240;2022-07-06T13:47:33;8.95;;;1.90;;
65543;SDS011;52173;45.204;39.240;2022-07-06T13:49:59;5.72;;;1.70;;
65543;SDS011;52173;45.204;39.240;2022-07-06T13:52:25;5.25;;;1.67;;
65543;SDS011;52173;45.204;39.240;2022-07-06T13:54:51;18.30;;;1.90;;
65543;SDS011;52173;45.204;39.240;2022-07-06T13:57:17;10.13;;;1.77;;
65543;SDS011;52173;45.204;39.240;2022-07-06T13:59:43;6.93;;;1.80;;
65543;SDS011;52173;45.204;39.240;2022-07-06T14:02:09;7.75;;;1.85;;
65543;SDS011;52173;45.204;39.240;2022-07-06T14:04:35;7.47;;;1.80;;
65543;SDS011;52173;45.204;39.240;2022-07-06T14:07:00;3.97;;;1.60;;
65543;SDS011;52173;45.204;39.240;2022-07-06T14:09:26;3.95;;;1.80;;
65543;SDS011;52173;45.204;39.240;2022-07-06T14:11:53;5.60;;;1.88;;
65543;SDS011;52173;45.204;39.240;2022-07-06T14:14:19;13.50;;;2.65;;
65543;SDS011;52173;45.204;39.240;2022-07-06T14:16:45;8.02;;;1.90;;
65543;SDS011;52173;45.204;39.240;2022-07-06T14:19:11;6.97;;;1.67;;
65543;SDS011;52173;45.204;39.240;2022-07-06T14:21:36;7.63;;;1.90;;
65543;SDS011;52173;45.204;39.240;2022-07-06T14:24:02;8.30;;;1.80;;
65543;SDS011;52173;45.204;39.240;2022-07-06T14:26:28;5.80;;;1.70;;
65543;SDS011;52173;45.204;39.240;2022-07-06T14:28:54;7.50;;;2.92;;